createdAt,value
2017-12-30T00:01:26.230Z,88.27
2017-12-30T00:03:53.810Z,87.63
2017-12-30T00:06:21.870Z,87.68
2017-12-30T00:08:49.457Z,88.16
2017-12-30T00:11:17.037Z,88.11
2017-12-30T00:13:44.657Z,87.39
2017-12-30T00:16:12.210Z,87.27
2017-12-30T00:18:39.805Z,87.83
2017-12-30T00:21:07.510Z,87.32
2017-12-30T00:23:35.068Z,87.07
2017-12-30T00:26:02.669Z,87.16
2017-12-30T00:28:30.303Z,86.83
2017-12-30T00:30:57.859Z,86.68
2017-12-30T00:33:25.459Z,87.15
2017-12-30T00:35:53.103Z,87.48
2017-12-30T00:38:20.648Z,87.08
2017-12-30T00:40:48.197Z,86.92
2017-12-30T00:43:15.845Z,86.77
2017-12-30T00:45:43.413Z,86.90
2017-12-30T00:48:11.006Z,87.07
2017-12-30T00:50:38.672Z,87.23
2017-12-30T00:53:06.587Z,87.22
2017-12-30T00:55:34.159Z,86.32
2017-12-30T00:58:01.787Z,86.38
2017-12-30T01:00:29.386Z,86.46
2017-12-30T01:02:56.945Z,86.22
2017-12-30T01:05:24.546Z,86.49
2017-12-30T01:07:52.110Z,86.04
2017-12-30T01:10:19.688Z,85.59
2017-12-30T01:12:47.257Z,85.38
2017-12-30T01:15:14.810Z,85.34
2017-12-30T01:17:42.374Z,85.42
2017-12-30T01:20:09.986Z,84.90
2017-12-30T01:22:37.647Z,83.79
2017-12-30T01:25:05.446Z,84.08
2017-12-30T01:27:33.005Z,83.80
2017-12-30T01:30:00.581Z,83.14
2017-12-30T01:32:28.124Z,82.46
2017-12-30T01:34:55.719Z,80.67
2017-12-30T01:37:23.277Z,79.84
2017-12-30T01:39:50.849Z,80.58
2017-12-30T01:42:18.450Z,80.22
2017-12-30T01:44:46.036Z,80.47
2017-12-30T01:47:13.597Z,79.81
2017-12-30T01:49:41.196Z,80.42
2017-12-30T01:52:08.753Z,80.65
2017-12-30T01:54:36.294Z,80.86
2017-12-30T01:57:03.910Z,81.09
2017-12-30T01:59:31.487Z,80.90
2017-12-30T02:01:59.083Z,81.07
2017-12-30T02:04:26.665Z,81.92
2017-12-30T02:06:54.201Z,82.02
2017-12-30T02:09:21.817Z,82.57
2017-12-30T02:11:49.395Z,83.10
2017-12-30T02:14:17.010Z,83.80
2017-12-30T02:16:44.598Z,84.66
2017-12-30T02:19:12.304Z,85.71
2017-12-30T02:21:39.929Z,86.49
2017-12-30T02:24:07.543Z,87.22
2017-12-30T02:26:35.070Z,87.60
2017-12-30T02:29:02.634Z,88.10
2017-12-30T02:31:30.250Z,88.50
2017-12-30T02:33:57.789Z,89.01
2017-12-30T02:36:25.327Z,89.12
2017-12-30T02:38:52.937Z,89.54
2017-12-30T02:41:20.643Z,89.65
2017-12-30T02:43:48.184Z,90.14
2017-12-30T02:46:16.665Z,90.39
2017-12-30T02:48:44.224Z,90.50
2017-12-30T02:51:11.794Z,90.84
2017-12-30T02:53:39.397Z,90.90
2017-12-30T02:56:07.492Z,90.85
2017-12-30T02:58:35.493Z,90.90
2017-12-30T03:01:03.477Z,90.89
2017-12-30T03:03:31.969Z,90.93
2017-12-30T03:05:59.528Z,90.89
2017-12-30T03:08:27.178Z,90.80
2017-12-30T03:10:54.768Z,90.68
2017-12-30T03:13:22.370Z,90.57
2017-12-30T03:15:49.957Z,90.32
2017-12-30T03:18:17.580Z,90.36
2017-12-30T03:20:45.180Z,90.24
2017-12-30T03:23:12.928Z,90.27
2017-12-30T03:25:40.580Z,90.03
2017-12-30T03:28:08.140Z,89.88
2017-12-30T03:30:35.707Z,90.02
2017-12-30T03:33:03.372Z,90.08
2017-12-30T03:35:30.935Z,90.32
2017-12-30T03:37:58.499Z,90.45
2017-12-30T03:40:26.135Z,90.46
2017-12-30T03:42:53.684Z,90.58
2017-12-30T03:45:21.220Z,90.98
2017-12-30T03:47:48.822Z,91.19
2017-12-30T03:50:16.413Z,91.43
2017-12-30T03:52:43.978Z,91.68
2017-12-30T03:55:11.771Z,91.89
2017-12-30T03:57:39.370Z,92.05
2017-12-30T04:00:06.961Z,91.88
2017-12-30T04:02:34.552Z,91.12
2017-12-30T04:05:02.117Z,90.28
2017-12-30T04:07:29.884Z,90.13
2017-12-30T04:09:57.500Z,90.22
2017-12-30T04:12:25.078Z,90.47
2017-12-30T04:14:52.652Z,90.44
2017-12-30T04:17:20.274Z,90.05
2017-12-30T04:19:47.851Z,89.81
2017-12-30T04:22:15.522Z,89.79
2017-12-30T04:24:43.128Z,89.67
2017-12-30T04:27:10.842Z,89.68
2017-12-30T04:29:38.400Z,90.08
2017-12-30T04:32:06.040Z,90.59
2017-12-30T04:34:33.634Z,90.96
2017-12-30T04:37:01.211Z,91.34
2017-12-30T04:42:00.586Z,91.95
2017-12-30T04:44:28.159Z,92.02
2017-12-30T04:46:55.798Z,92.17
2017-12-30T04:49:23.758Z,91.82
2017-12-30T04:51:51.356Z,91.01
2017-12-30T04:54:18.989Z,90.51
2017-12-30T04:56:46.552Z,89.63
2017-12-30T04:59:14.106Z,89.54
2017-12-30T05:01:41.733Z,89.42
2017-12-30T05:04:09.296Z,89.39
2017-12-30T05:06:36.851Z,89.71
2017-12-30T05:09:04.900Z,90.38
2017-12-30T05:11:32.472Z,90.67
2017-12-30T05:14:00.029Z,91.08
2017-12-30T05:16:27.598Z,91.58
2017-12-30T05:18:55.142Z,91.45
2017-12-30T05:21:22.721Z,91.50
2017-12-30T05:23:50.357Z,91.37
2017-12-30T05:26:17.917Z,91.55
2017-12-30T05:28:45.468Z,91.73
2017-12-30T05:31:13.059Z,92.05
2017-12-30T05:33:40.641Z,92.31
2017-12-30T05:36:08.319Z,92.51
2017-12-30T05:38:35.917Z,92.66
2017-12-30T05:41:03.499Z,92.26
2017-12-30T05:43:31.504Z,91.26
2017-12-30T05:45:59.206Z,90.74
2017-12-30T05:48:32.662Z,91.10
2017-12-30T05:51:00.289Z,91.00
2017-12-30T05:53:27.850Z,91.34
2017-12-30T05:55:55.411Z,90.73
2017-12-30T05:58:22.992Z,91.02
2017-12-30T06:00:50.568Z,91.22
2017-12-30T06:03:18.153Z,91.32
2017-12-30T06:05:45.745Z,91.64
2017-12-30T06:08:13.348Z,91.39
2017-12-30T06:10:40.921Z,90.78
2017-12-30T06:13:08.819Z,90.45
2017-12-30T06:15:36.420Z,90.77
2017-12-30T06:18:04.069Z,90.91
2017-12-30T06:20:31.683Z,91.34
2017-12-30T06:22:59.264Z,91.66
2017-12-30T06:25:26.970Z,92.04
2017-12-30T06:27:54.561Z,92.43
2017-12-30T06:30:22.127Z,92.09
2017-12-30T06:32:49.700Z,92.14
2017-12-30T06:35:17.293Z,92.43
2017-12-30T06:37:44.862Z,92.82
2017-12-30T06:40:12.530Z,94.05
2017-12-30T06:45:31.015Z,94.39
2017-12-30T06:47:58.620Z,95.36
2017-12-30T06:50:26.193Z,94.52
2017-12-30T06:52:53.771Z,94.25
2017-12-30T06:55:21.513Z,93.82
2017-12-30T07:00:39.760Z,93.85
2017-12-30T07:03:09.786Z,94.04
2017-12-30T07:05:37.349Z,93.71
2017-12-30T07:10:55.677Z,93.34
2017-12-30T07:13:29.237Z,93.21
2017-12-30T07:15:56.954Z,93.13
2017-12-30T07:18:24.612Z,93.00
2017-12-30T07:20:52.913Z,93.00
2017-12-30T07:23:20.492Z,93.00
2017-12-30T07:25:48.051Z,92.72
2017-12-30T07:28:15.592Z,92.22
2017-12-30T07:30:43.213Z,92.12
2017-12-30T07:33:12.991Z,92.26
2017-12-30T07:35:40.839Z,92.20
2017-12-30T07:38:08.399Z,91.91
2017-12-30T07:40:35.971Z,91.93
2017-12-30T07:43:05.011Z,91.75
2017-12-30T07:45:32.749Z,91.61
2017-12-30T07:48:01.312Z,91.48
2017-12-30T07:50:28.887Z,91.40
2017-12-30T07:52:56.457Z,91.47
2017-12-30T07:55:24.029Z,91.39
2017-12-30T07:57:51.597Z,91.52
2017-12-30T08:00:19.155Z,91.35
2017-12-30T08:02:46.730Z,91.24
2017-12-30T08:05:14.296Z,91.17
2017-12-30T08:07:41.870Z,91.23
2017-12-30T08:10:09.484Z,90.85
2017-12-30T08:12:37.044Z,90.60
2017-12-30T08:15:04.631Z,90.74
2017-12-30T08:17:32.271Z,90.53
2017-12-30T08:19:59.846Z,90.46
2017-12-30T08:22:27.691Z,90.07
2017-12-30T08:24:55.351Z,90.13
2017-12-30T08:27:22.886Z,89.85
2017-12-30T08:29:50.451Z,89.53
2017-12-30T08:32:18.074Z,89.13
2017-12-30T08:34:45.613Z,88.95
2017-12-30T08:37:13.160Z,88.69
2017-12-30T08:39:40.773Z,88.33
2017-12-30T08:42:08.510Z,87.91
2017-12-30T08:44:36.146Z,87.70
2017-12-30T08:47:03.747Z,87.55
2017-12-30T08:49:31.879Z,87.43
2017-12-30T08:51:59.740Z,86.72
2017-12-30T08:54:27.325Z,86.95
2017-12-30T08:56:54.920Z,86.88
2017-12-30T08:59:22.520Z,85.69
2017-12-30T09:01:50.079Z,85.40
2017-12-30T09:04:17.640Z,84.94
2017-12-30T09:06:45.256Z,83.54
2017-12-30T09:09:12.799Z,83.99
2017-12-30T09:11:40.358Z,83.20
2017-12-30T09:14:07.962Z,83.30
2017-12-30T09:16:35.563Z,82.39
2017-12-30T09:19:03.137Z,81.32
2017-12-30T09:21:30.684Z,81.49
2017-12-30T09:23:58.253Z,81.49
2017-12-30T09:26:25.800Z,82.00
2017-12-30T09:28:53.361Z,82.73
2017-12-30T09:31:20.961Z,83.25
2017-12-30T09:33:48.520Z,83.21
2017-12-30T09:36:16.037Z,82.82
2017-12-30T09:38:43.611Z,83.22
2017-12-30T09:41:11.165Z,82.91
2017-12-30T09:43:38.719Z,83.69
2017-12-30T09:46:06.266Z,82.56
2017-12-30T09:48:33.863Z,82.11
2017-12-30T09:51:01.463Z,82.29
2017-12-30T09:53:29.027Z,83.07
2017-12-30T09:55:56.611Z,82.64
2017-12-30T09:58:24.160Z,82.82
2017-12-30T10:00:51.706Z,82.40
2017-12-30T10:03:19.266Z,81.83
2017-12-30T10:05:46.824Z,80.94
2017-12-30T10:08:14.396Z,79.85
2017-12-30T10:10:41.927Z,79.64
2017-12-30T10:13:09.559Z,78.56
2017-12-30T10:15:37.130Z,79.69
2017-12-30T10:18:05.080Z,79.20
2017-12-30T10:20:32.671Z,80.05
2017-12-30T10:23:00.241Z,76.72
2017-12-30T10:25:27.790Z,78.34
2017-12-30T10:27:55.340Z,76.56
2017-12-30T10:30:23.004Z,73.89
2017-12-30T10:32:50.570Z,73.85
2017-12-30T10:35:18.187Z,74.96
2017-12-30T10:37:45.741Z,77.38
2017-12-30T10:40:13.299Z,75.27
2017-12-30T10:42:40.873Z,73.23
2017-12-30T10:45:08.431Z,73.01
2017-12-30T10:47:36.072Z,72.58
2017-12-30T10:50:03.640Z,72.45
2017-12-30T10:52:31.181Z,71.02
2017-12-30T10:54:58.769Z,71.59
2017-12-30T10:57:26.363Z,72.19
2017-12-30T10:59:54.044Z,72.34
2017-12-30T11:02:21.589Z,73.49
2017-12-30T11:04:49.294Z,74.86
2017-12-30T11:07:16.855Z,74.47
2017-12-30T11:09:44.413Z,73.55
2017-12-30T11:12:11.970Z,74.40
2017-12-30T11:14:40.769Z,73.64
2017-12-30T11:17:08.315Z,74.20
2017-12-30T11:19:35.867Z,73.09
2017-12-30T11:22:03.466Z,73.11
2017-12-30T11:24:31.023Z,72.18
2017-12-30T11:26:59.322Z,70.53
2017-12-30T11:29:26.866Z,70.34
2017-12-30T11:31:54.417Z,69.44
2017-12-30T11:34:21.975Z,69.08
2017-12-30T11:36:49.558Z,69.26
2017-12-30T11:39:17.141Z,70.11
2017-12-30T11:41:44.764Z,69.44
2017-12-30T11:44:12.362Z,68.39
2017-12-30T11:46:40.040Z,69.21
2017-12-30T11:49:07.694Z,69.22
2017-12-30T11:51:35.378Z,68.92
2017-12-30T11:54:05.195Z,68.44
2017-12-30T11:56:32.926Z,69.68
2017-12-30T11:59:00.457Z,70.52
2017-12-30T12:01:28.009Z,70.15
2017-12-30T12:03:55.613Z,69.82
2017-12-30T12:06:24.005Z,69.90
2017-12-30T12:08:51.560Z,69.08
2017-12-30T12:11:19.162Z,68.15
2017-12-30T12:13:46.717Z,68.54
2017-12-30T12:16:14.254Z,68.43
2017-12-30T12:18:41.852Z,68.45
2017-12-30T12:21:09.582Z,69.41
2017-12-30T12:23:37.174Z,69.00
2017-12-30T12:26:04.757Z,68.54
2017-12-30T12:28:32.321Z,69.44
2017-12-30T12:30:59.864Z,70.07
2017-12-30T12:33:27.443Z,70.23
2017-12-30T12:35:55.018Z,70.65
2017-12-30T12:38:22.581Z,70.62
2017-12-30T12:40:50.145Z,71.09
2017-12-30T12:43:17.707Z,71.11
2017-12-30T12:45:45.259Z,70.73
2017-12-30T12:48:12.843Z,70.41
2017-12-30T12:50:40.428Z,70.43
2017-12-30T12:53:08.151Z,70.31
2017-12-30T12:55:35.846Z,72.96
2017-12-30T12:58:03.409Z,74.56
2017-12-30T13:00:31.025Z,76.34
2017-12-30T13:02:58.586Z,77.84
2017-12-30T13:05:26.141Z,78.59
2017-12-30T13:07:53.746Z,79.72
2017-12-30T13:10:21.321Z,80.04
2017-12-30T13:12:48.923Z,79.65
2017-12-30T13:15:16.509Z,79.80
2017-12-30T13:17:44.064Z,78.18
2017-12-30T13:20:11.759Z,78.64
2017-12-30T13:22:39.305Z,78.65
2017-12-30T13:25:06.842Z,77.37
2017-12-30T13:27:34.381Z,77.02
2017-12-30T13:30:02.011Z,77.25
2017-12-30T13:32:29.621Z,76.38
2017-12-30T13:34:57.192Z,74.83
2017-12-30T13:37:24.729Z,77.50
2017-12-30T13:39:52.293Z,79.35
2017-12-30T13:42:19.971Z,80.49
2017-12-30T13:44:47.518Z,81.67
2017-12-30T13:47:15.328Z,82.52
2017-12-30T13:49:42.889Z,83.28
2017-12-30T13:52:10.460Z,83.36
2017-12-30T13:54:38.037Z,83.97
2017-12-30T13:57:05.597Z,84.69
2017-12-30T13:59:33.138Z,85.14
2017-12-30T14:02:00.701Z,85.45
2017-12-30T14:04:28.259Z,84.63
2017-12-30T14:06:55.801Z,84.48
2017-12-30T14:09:23.478Z,84.80
2017-12-30T14:11:51.012Z,85.77
2017-12-30T14:14:18.821Z,86.43
2017-12-30T14:16:46.382Z,86.10
2017-12-30T14:19:13.939Z,85.13
2017-12-30T14:21:41.551Z,85.03
2017-12-30T14:24:09.102Z,85.61
2017-12-30T14:26:36.681Z,85.82
2017-12-30T14:29:04.272Z,85.52
2017-12-30T14:31:33.425Z,84.23
2017-12-30T14:34:00.980Z,84.24
2017-12-30T14:36:28.538Z,84.31
2017-12-30T14:38:56.130Z,84.62
2017-12-30T14:41:23.667Z,85.09
2017-12-30T14:43:51.192Z,85.71
2017-12-30T14:46:18.787Z,86.13
2017-12-30T14:48:46.356Z,86.56
2017-12-30T14:51:13.920Z,87.31
2017-12-30T14:56:32.276Z,87.94
2017-12-30T14:58:59.880Z,88.21
2017-12-30T15:01:27.424Z,88.58
2017-12-30T15:03:55.024Z,88.97
2017-12-30T15:06:22.657Z,89.24
2017-12-30T15:08:50.206Z,89.66
2017-12-30T15:11:17.754Z,89.76
2017-12-30T15:13:45.335Z,90.04
2017-12-30T15:16:12.883Z,90.17
2017-12-30T15:18:40.499Z,89.79
2017-12-30T15:21:08.225Z,90.32
2017-12-30T15:23:35.788Z,90.68
2017-12-30T15:26:04.718Z,91.11
2017-12-30T15:28:32.269Z,91.53
2017-12-30T15:31:00.928Z,90.83
2017-12-30T15:33:28.574Z,90.97
2017-12-30T15:35:57.720Z,91.22
2017-12-30T15:38:25.295Z,90.91
2017-12-30T15:40:52.905Z,91.09
2017-12-30T15:43:20.445Z,90.98
2017-12-30T15:45:47.988Z,91.25
2017-12-30T15:48:15.602Z,91.03
2017-12-30T15:50:43.145Z,91.24
2017-12-30T15:53:10.711Z,91.37
2017-12-30T15:55:38.348Z,91.39
2017-12-30T15:58:05.883Z,91.34
2017-12-30T16:00:33.459Z,91.70
2017-12-30T16:03:01.064Z,91.43
2017-12-30T16:05:28.611Z,91.57
2017-12-30T16:07:56.204Z,91.86
2017-12-30T16:10:23.785Z,92.11
2017-12-30T16:12:51.329Z,92.31
2017-12-30T16:15:18.897Z,92.59
2017-12-30T16:17:46.492Z,92.65
2017-12-30T16:20:14.156Z,92.94
2017-12-30T16:22:41.751Z,93.00
2017-12-30T16:25:09.647Z,93.09
2017-12-30T16:27:37.211Z,93.49
2017-12-30T16:30:04.749Z,93.57
2017-12-30T16:32:32.360Z,93.80
2017-12-30T16:34:59.951Z,93.69
2017-12-30T16:37:27.522Z,93.73
2017-12-30T16:39:56.692Z,93.71
2017-12-30T16:42:24.326Z,93.66
2017-12-30T16:44:51.920Z,93.45
2017-12-30T16:47:19.482Z,93.51
2017-12-30T16:49:47.054Z,93.54
2017-12-30T16:52:14.625Z,93.59
2017-12-30T16:54:42.176Z,93.46
2017-12-30T16:57:10.003Z,93.39
2017-12-30T16:59:37.700Z,93.95
2017-12-30T17:02:05.232Z,93.92
2017-12-30T17:04:32.782Z,94.09
2017-12-30T17:07:00.561Z,94.33
2017-12-30T17:09:28.109Z,94.91
2017-12-30T17:11:55.654Z,94.94
2017-12-30T17:14:23.328Z,94.77
2017-12-30T17:16:50.881Z,94.56
2017-12-30T17:19:18.435Z,94.56
2017-12-30T17:21:46.030Z,94.74
2017-12-30T17:24:13.709Z,94.80
2017-12-30T17:26:41.245Z,94.80
2017-12-30T17:29:09.209Z,94.65
2017-12-30T17:31:36.851Z,94.85
2017-12-30T17:34:04.381Z,94.83
2017-12-30T17:36:31.994Z,95.03
2017-12-30T17:38:59.558Z,94.91
2017-12-30T17:41:27.138Z,95.02
2017-12-30T17:43:54.709Z,95.32
2017-12-30T17:46:22.298Z,95.47
2017-12-30T17:48:49.871Z,95.59
2017-12-30T17:51:17.435Z,95.70
2017-12-30T17:53:45.006Z,95.78
2017-12-30T17:56:12.665Z,95.79
2017-12-30T17:58:40.229Z,95.85
2017-12-30T18:01:07.784Z,95.87
2017-12-30T18:03:35.327Z,95.83
2017-12-30T18:06:17.587Z,95.85
2017-12-30T18:08:45.144Z,95.78
2017-12-30T18:11:12.673Z,95.83
2017-12-30T18:13:40.239Z,96.10
2017-12-30T18:16:07.771Z,96.20
2017-12-30T18:18:35.337Z,96.30
2017-12-30T18:21:02.879Z,96.24
2017-12-30T18:23:31.057Z,96.08
2017-12-30T18:25:58.601Z,95.92
2017-12-30T18:28:26.159Z,95.88
2017-12-30T18:30:53.736Z,95.86
2017-12-30T18:33:21.283Z,96.03
2017-12-30T18:35:48.805Z,96.15
2017-12-30T18:38:16.347Z,96.08
2017-12-30T18:40:43.884Z,96.45
2017-12-30T18:43:11.610Z,96.56
2017-12-30T18:45:39.143Z,96.82
2017-12-30T18:48:06.680Z,96.70
2017-12-30T18:50:34.232Z,96.71
2017-12-30T18:53:01.780Z,96.67
2017-12-30T18:55:29.437Z,96.72
2017-12-30T18:57:57.029Z,96.68
2017-12-30T19:00:24.584Z,96.42
2017-12-30T19:02:52.140Z,96.80
2017-12-30T19:05:19.953Z,96.97
2017-12-30T19:07:47.879Z,97.04
2017-12-30T19:10:15.478Z,96.97
2017-12-30T19:12:43.455Z,97.06
2017-12-30T19:15:11.047Z,97.32
2017-12-30T19:17:38.600Z,97.71
2017-12-30T19:20:06.188Z,97.72
2017-12-30T19:22:33.741Z,97.57
2017-12-30T19:25:02.010Z,97.52
2017-12-30T19:27:29.587Z,97.46
2017-12-30T19:29:57.137Z,97.37
2017-12-30T19:32:24.688Z,97.39
2017-12-30T19:34:52.282Z,97.40
2017-12-30T19:37:19.831Z,97.37
2017-12-30T19:39:47.402Z,97.32
2017-12-30T19:42:14.991Z,96.91
2017-12-30T19:44:43.237Z,96.74
2017-12-30T19:47:10.794Z,96.66
2017-12-30T19:49:38.357Z,96.60
2017-12-30T19:52:05.909Z,95.89
2017-12-30T19:54:33.513Z,95.50
2017-12-30T19:57:01.009Z,94.34
2017-12-30T19:59:28.563Z,95.05
2017-12-30T20:04:30.442Z,95.12
2017-12-30T20:06:58.015Z,95.26
2017-12-30T20:09:25.562Z,95.36
2017-12-30T20:11:53.120Z,95.48
2017-12-30T20:14:20.722Z,95.65
2017-12-30T20:16:48.267Z,95.79
2017-12-30T20:19:15.801Z,95.95
2017-12-30T20:21:43.393Z,95.98
2017-12-30T20:24:10.937Z,95.12
2017-12-30T20:26:38.495Z,94.22
2017-12-30T20:29:06.106Z,94.08
2017-12-30T20:31:33.665Z,94.54
2017-12-30T20:34:01.207Z,94.72
2017-12-30T20:36:28.828Z,94.95
2017-12-30T20:38:56.385Z,95.16
2017-12-30T20:41:23.932Z,95.54
2017-12-30T20:43:51.506Z,95.54
2017-12-30T20:46:19.043Z,95.67
2017-12-30T20:48:46.588Z,95.71
2017-12-30T20:51:14.136Z,95.70
2017-12-30T20:53:41.705Z,95.65
2017-12-30T20:56:09.251Z,95.65
2017-12-30T20:58:36.803Z,95.49
2017-12-30T21:01:04.378Z,95.45
2017-12-30T21:03:31.936Z,95.61
2017-12-30T21:05:59.489Z,95.82
2017-12-30T21:08:27.083Z,95.68
2017-12-30T21:10:54.628Z,95.67
2017-12-30T21:13:22.187Z,95.48
2017-12-30T21:15:49.739Z,95.52
2017-12-30T21:18:17.429Z,95.67
2017-12-30T21:20:44.977Z,95.82
2017-12-30T21:23:12.539Z,95.73
2017-12-30T21:25:40.281Z,95.66
2017-12-30T21:28:07.915Z,95.85
2017-12-30T21:30:35.468Z,96.03
2017-12-30T21:33:03.018Z,96.00
2017-12-30T21:35:31.608Z,96.01
2017-12-30T21:37:59.161Z,95.84
2017-12-30T21:40:26.756Z,95.93
2017-12-30T21:42:54.313Z,95.79
2017-12-30T21:45:21.894Z,95.83
2017-12-30T21:50:46.448Z,96.01
2017-12-30T21:53:13.989Z,96.16
2017-12-30T21:55:41.775Z,96.32
2017-12-30T21:58:09.354Z,96.80
2017-12-30T22:00:36.889Z,96.82
2017-12-30T22:03:04.506Z,96.53
2017-12-30T22:05:32.076Z,96.80
2017-12-30T22:07:59.620Z,96.65
2017-12-30T22:10:27.146Z,96.95
2017-12-30T22:12:54.725Z,97.82
2017-12-30T22:15:22.285Z,97.81
2017-12-30T22:17:49.825Z,98.63
2017-12-30T22:20:17.465Z,99.49
2017-12-30T22:22:45.012Z,99.24
2017-12-30T22:25:12.563Z,99.27
2017-12-30T22:27:40.140Z,98.86
2017-12-30T22:30:07.753Z,98.53
2017-12-30T22:32:35.293Z,97.65
2017-12-30T22:35:02.888Z,97.38
2017-12-30T22:37:30.460Z,97.55
2017-12-30T22:40:10.047Z,97.62
2017-12-30T22:42:37.684Z,97.63
2017-12-30T22:45:05.924Z,97.59
2017-12-30T22:47:33.489Z,96.04
2017-12-30T22:50:01.046Z,97.60
2017-12-30T22:52:28.647Z,97.01
2017-12-30T22:54:56.232Z,96.58
2017-12-30T22:57:23.768Z,96.55
2017-12-30T22:59:51.361Z,97.14
2017-12-30T23:02:18.981Z,96.02
2017-12-30T23:04:48.124Z,95.73
2017-12-30T23:07:15.894Z,96.83
2017-12-30T23:09:43.458Z,96.14
2017-12-30T23:12:11.024Z,95.93
2017-12-30T23:14:38.577Z,95.76
2017-12-30T23:17:06.361Z,96.82
2017-12-30T23:19:33.984Z,96.90
2017-12-30T23:22:01.542Z,95.29
2017-12-30T23:24:29.103Z,96.53
2017-12-30T23:26:56.727Z,96.45
2017-12-30T23:29:24.303Z,95.67
2017-12-30T23:31:51.844Z,95.99
2017-12-30T23:34:19.451Z,95.60
2017-12-30T23:36:47.005Z,96.85
2017-12-30T23:39:14.556Z,96.25
2017-12-30T23:41:42.168Z,96.25
2017-12-30T23:44:09.717Z,95.95
2017-12-30T23:46:37.312Z,96.79
2017-12-30T23:49:04.901Z,97.00
2017-12-30T23:51:32.516Z,96.70
2017-12-30T23:54:00.068Z,96.29
2017-12-30T23:56:27.621Z,96.65
2017-12-30T23:58:57.540Z,97.05
